KVSF/VSF METAR and TAF weather

Enter ICAO airport designator
Station Type Date Time Source
KVSF METAR 2020/11/28 18:54 UTC NOAA

KVSF 281854Z AUTO VRB04KT 10SM FEW028 BKN060 OVC095 07/02 A2989 RMK AO2 RAB1759E42 SLP126 P0000 T00670017


Station Type Date Time Source
KVSF Decoded METAR 2020/11/28 18:54 UTC NOAA

HARTNESS STATE AIRPORT, VT, United States (KVSF) 43-21N 72-31W 175M
Nov 28, 2020 - 01:54 PM EST / 2020.11.28 1854 UTC
Wind: Variable at 5 MPH (4 KT):0
Visibility: 10 mile(s):0
Sky conditions: overcast
Precipitation last hour: A trace
Temperature: 44.1 F (6.7 C)
Dew Point: 35.1 F (1.7 C)
Relative Humidity: 70%
Pressure (altimeter): 29.89 in. Hg (1012 hPa)
ob: KVSF 281854Z AUTO VRB04KT 10SM FEW028 BKN060 OVC095 07/02 A2989 RMK AO2 RAB1759E42 SLP126 P0000 T00670017
cycle: 19

Station Type Date Time Source
KVSF TAF UTC NOAA

Error!

Example: see airport list